Time;durP1;ratioP1;P1;durP2;ratioP2;P2;SDS_P1;SDS_P2;PMS_P1;PMS_P2;Temp;Humidity;BMP_temperature;BMP_pressure;BME280_temperature;BME280_humidity;BME280_pressure;Samples;Min_cycle;Max_cycle;Signal;HPM_P1;HPM_P2
2021/12/04 00:00:13;;;;;;;17.50;12.95;;;;;;;3.05;100.00;100032.50;4735476;30;20067;-75
2021/12/04 00:02:39;;;;;;;15.02;12.63;;;;;;;3.02;100.00;100022.41;4735777;30;20141;-87
2021/12/04 00:05:06;;;;;;;16.35;12.75;;;;;;;3.05;100.00;100029.13;4735847;30;20040;-84
2021/12/04 00:07:33;;;;;;;17.40;13.60;;;;;;;3.05;100.00;100018.91;4735757;30;20094;-83
2021/12/04 00:10:00;;;;;;;17.27;13.55;;;;;;;3.04;100.00;100010.41;4735428;30;20056;-79
2021/12/04 00:12:26;;;;;;;17.30;13.55;;;;;;;2.88;100.00;99984.78;4735494;30;20371;-75
2021/12/04 00:14:52;;;;;;;18.85;14.38;;;;;;;3.04;100.00;100004.47;4735071;30;20113;-78
2021/12/04 00:17:18;;;;;;;16.73;13.27;;;;;;;3.05;100.00;100004.44;4735488;30;20090;-77
2021/12/04 00:19:43;;;;;;;17.02;14.48;;;;;;;3.05;100.00;99990.84;4735447;30;20032;-75
2021/12/04 00:22:09;;;;;;;18.00;13.27;;;;;;;2.90;100.00;99959.22;4748807;30;20107;-75
2021/12/04 00:24:35;;;;;;;18.30;13.80;;;;;;;2.90;100.00;99971.13;4735339;30;20036;-84
2021/12/04 00:27:00;;;;;;;16.73;12.98;;;;;;;3.05;100.00;99995.97;4735433;30;20558;-80
2021/12/04 00:29:26;;;;;;;17.00;13.32;;;;;;;3.03;100.00;99996.00;4734850;30;20033;-79
2021/12/04 00:32:00;;;;;;;17.42;13.60;;;;;;;3.06;100.00;99984.84;4735239;30;20033;-80
2021/12/04 00:34:27;;;;;;;19.13;14.18;;;;;;;3.00;100.00;99980.03;4718476;30;20415;-77
2021/12/04 00:50:37;;;;;;;20.08;14.25;;;;;;;3.05;100.00;99978.94;4663879;30;20041;-79
2021/12/04 00:53:03;;;;;;;16.77;13.25;;;;;;;3.00;100.00;99967.25;4663941;30;20050;-75
2021/12/04 00:55:28;;;;;;;18.52;13.48;;;;;;;3.01;100.00;99953.63;4663864;30;20041;-82
2021/12/04 00:57:53;;;;;;;16.13;13.45;;;;;;;3.09;100.00;99961.75;4663808;30;20058;-76
2021/12/04 01:00:20;;;;;;;17.92;14.02;;;;;;;3.06;100.00;99967.81;4663817;30;20168;-77
2021/12/04 01:02:45;;;;;;;19.80;14.05;;;;;;;3.11;100.00;99973.53;4663997;30;20050;-80
2021/12/04 01:05:11;;;;;;;17.85;14.32;;;;;;;3.10;100.00;99971.88;4677579;30;20070;-77
2021/12/04 01:07:36;;;;;;;17.58;12.73;;;;;;;3.08;100.00;99962.66;4663872;30;20125;-80
2021/12/04 01:10:05;;;;;;;16.73;12.70;;;;;;;3.12;100.00;99975.19;4663779;30;20054;-80
2021/12/04 01:12:30;;;;;;;15.77;12.07;;;;;;;3.02;100.00;99966.28;4663917;30;20408;-76
2021/12/04 01:14:55;;;;;;;15.60;12.27;;;;;;;3.13;100.00;99970.91;4663739;30;20034;-81
2021/12/04 01:17:21;;;;;;;16.13;13.32;;;;;;;3.12;100.00;99975.19;4663573;30;20427;-78
2021/12/04 01:19:46;;;;;;;15.82;12.65;;;;;;;3.12;100.00;99974.34;4663852;30;20132;-78
2021/12/04 01:22:11;;;;;;;15.10;12.95;;;;;;;3.15;100.00;99975.06;4663738;30;20484;-73
2021/12/04 01:24:37;;;;;;;15.95;12.93;;;;;;;3.04;100.00;99956.00;4700261;30;20119;-83
2021/12/04 01:27:03;;;;;;;16.10;12.57;;;;;;;3.09;100.00;99962.56;4734812;30;20032;-77
2021/12/04 01:29:28;;;;;;;17.23;12.73;;;;;;;3.16;100.00;99974.16;4719146;30;20044;-77
2021/12/04 01:31:53;;;;;;;15.88;12.55;;;;;;;3.11;100.00;99959.94;4718681;30;20123;-75
2021/12/04 01:34:19;;;;;;;16.02;12.60;;;;;;;3.11;100.00;99949.75;4734737;30;20481;-78
2021/12/04 01:36:44;;;;;;;17.15;12.80;;;;;;;3.19;100.00;99954.50;4734582;30;20040;-76
2021/12/04 01:39:11;;;;;;;17.23;12.80;;;;;;;3.20;100.00;99961.25;4734783;30;20029;-80
2021/12/04 01:41:36;;;;;;;15.20;12.27;;;;;;;3.19;100.00;99965.53;4734680;30;20033;-76
2021/12/04 01:44:04;;;;;;;15.35;11.98;;;;;;;3.20;100.00;99962.06;4734577;30;20197;-76
2021/12/04 01:46:31;;;;;;;14.52;12.15;;;;;;;3.21;100.00;99953.53;4737516;30;20040;-75
2021/12/04 01:48:56;;;;;;;17.90;12.23;;;;;;;3.24;100.00;99957.66;4738098;30;20494;-75
2021/12/04 01:51:22;;;;;;;18.75;12.40;;;;;;;3.13;100.00;99937.75;4737952;30;20173;-80
2021/12/04 01:53:48;;;;;;;15.82;12.70;;;;;;;3.14;100.00;99936.84;4738106;30;20064;-81
2021/12/04 01:56:14;;;;;;;15.77;12.20;;;;;;;3.26;100.00;99950.78;4737898;30;20029;-80
2021/12/04 01:58:42;;;;;;;16.17;11.80;;;;;;;3.28;100.00;99949.78;4737933;30;20111;-76
2021/12/04 02:01:08;;;;;;;15.18;11.45;;;;;;;3.28;100.00;99959.19;4737788;30;20028;-78
2021/12/04 02:03:33;;;;;;;15.63;11.77;;;;;;;3.24;100.00;99950.00;4737873;30;20029;-79
2021/12/04 02:05:59;;;;;;;17.23;12.10;;;;;;;3.12;100.00;99926.72;4737748;30;20043;-76
2021/12/04 02:08:25;;;;;;;16.33;11.77;;;;;;;3.23;100.00;99938.13;4737580;30;20055;-76
2021/12/04 02:10:54;;;;;;;15.82;11.73;;;;;;;3.31;100.00;99947.09;4737903;30;20062;-76
2021/12/04 02:13:20;;;;;;;14.70;12.35;;;;;;;3.34;100.00;99946.97;4737737;30;20055;-76
2021/12/04 02:15:47;;;;;;;15.65;12.32;;;;;;;3.27;100.00;99920.06;4737711;30;20485;-79
2021/12/04 02:18:14;;;;;;;17.20;12.50;;;;;;;3.32;100.00;99925.78;4737435;30;20446;-78
2021/12/04 02:20:39;;;;;;;15.00;11.48;;;;;;;3.35;100.00;99914.63;4737547;30;20497;-74
2021/12/04 02:23:07;;;;;;;17.77;11.80;;;;;;;3.36;100.00;99906.06;4737655;30;20040;-80
2021/12/04 02:25:33;;;;;;;16.75;11.60;;;;;;;3.29;100.00;99897.03;4737589;30;20029;-77
2021/12/04 02:28:00;;;;;;;16.25;11.32;;;;;;;3.35;100.00;99902.69;4750719;30;20470;-74
2021/12/04 02:30:32;;;;;;;15.60;11.77;;;;;;;3.35;100.00;99902.69;4737421;30;20539;-75
2021/12/04 02:32:58;;;;;;;15.48;10.80;;;;;;;3.34;100.00;99893.38;4737205;30;20037;-78
2021/12/04 02:35:25;;;;;;;15.75;11.77;;;;;;;3.33;100.00;99893.44;4737306;30;20045;-75
2021/12/04 02:37:52;;;;;;;15.48;11.80;;;;;;;3.34;100.00;99895.94;4737254;30;20042;-75
2021/12/04 02:40:21;;;;;;;15.98;12.25;;;;;;;3.30;100.00;99884.19;4737288;30;20064;-85
2021/12/04 02:42:48;;;;;;;16.90;11.98;;;;;;;3.36;100.00;99895.84;4737272;30;20036;-78
2021/12/04 02:45:13;;;;;;;16.95;12.73;;;;;;;3.27;100.00;99873.31;4737117;30;20036;-78
2021/12/04 02:47:40;;;;;;;16.05;12.70;;;;;;;3.37;100.00;99879.63;4736870;30;20593;-79
2021/12/04 02:50:07;;;;;;;18.67;13.55;;;;;;;3.39;100.00;99877.84;4737011;30;20032;-77
2021/12/04 02:52:34;;;;;;;18.25;12.75;;;;;;;3.39;100.00;99873.56;4737433;30;20033;-77
2021/12/04 02:55:00;;;;;;;18.98;13.40;;;;;;;3.40;100.00;99875.19;4736980;30;20478;-75
2021/12/04 02:57:26;;;;;;;18.10;13.18;;;;;;;3.42;100.00;99885.31;4736515;30;20082;-75
2021/12/04 02:59:53;;;;;;;17.80;13.45;;;;;;;3.39;100.00;99878.66;4736919;30;20039;-79
2021/12/04 03:02:21;;;;;;;22.67;14.10;;;;;;;3.44;100.00;99886.06;4737073;30;20025;-76
2021/12/04 03:04:51;;;;;;;18.02;13.32;;;;;;;3.46;100.00;99879.19;4736269;30;20044;-80
2021/12/04 03:07:18;;;;;;;18.30;13.38;;;;;;;3.47;100.00;99875.75;4736911;30;20037;-77
2021/12/04 03:09:44;;;;;;;20.88;13.98;;;;;;;3.51;100.00;99872.13;4736790;30;20094;-76
2021/12/04 03:12:11;;;;;;;20.25;14.25;;;;;;;3.52;100.00;99868.66;4736718;30;20049;-76
2021/12/04 03:14:37;;;;;;;21.65;13.32;;;;;;;3.49;100.00;99868.81;4736636;30;20028;-78
2021/12/04 03:17:03;;;;;;;18.23;13.32;;;;;;;3.48;100.00;99863.81;4736611;30;20044;-80
2021/12/04 03:19:29;;;;;;;20.30;13.75;;;;;;;3.38;100.00;99850.66;4736088;30;20111;-76
2021/12/04 03:21:55;;;;;;;20.05;14.10;;;;;;;3.35;100.00;99845.72;4736528;30;20494;-79
2021/12/04 03:24:21;;;;;;;20.08;13.27;;;;;;;3.42;100.00;99855.53;4736397;30;20048;-74
2021/12/04 03:26:49;;;;;;;18.27;12.55;;;;;;;3.44;100.00;99853.75;4736581;30;20036;-76
2021/12/04 03:29:18;;;;;;;19.98;12.68;;;;;;;3.41;100.00;99843.66;4736379;30;20051;-84
2021/12/04 03:42:52;;;;;;;18.60;13.02;;;;;;;3.49;100.00;99842.47;4699435;30;20053;-77
2021/12/04 03:45:18;;;;;;;22.40;13.07;;;;;;;3.48;100.00;99836.56;4699324;30;20034;-81
2021/12/04 03:47:47;;;;;;;16.92;12.60;;;;;;;3.47;100.00;99840.00;4699195;30;20041;-78
2021/12/04 03:50:13;;;;;;;20.80;13.20;;;;;;;3.45;100.00;99837.53;4698957;30;20045;-75
2021/12/04 03:52:38;;;;;;;20.70;12.88;;;;;;;3.48;100.00;99836.56;4699326;30;20037;-76
2021/12/04 03:55:05;;;;;;;19.10;12.35;;;;;;;3.41;100.00;99814.78;4699130;30;20507;-75
2021/12/04 03:57:31;;;;;;;19.88;12.95;;;;;;;3.44;100.00;99822.28;4699122;30;20045;-76
2021/12/04 03:59:59;;;;;;;21.02;12.88;;;;;;;3.46;100.00;99820.50;4698933;30;20116;-75
2021/12/04 04:02:25;;;;;;;18.63;13.05;;;;;;;3.42;100.00;99817.25;4699045;30;20124;-75
2021/12/04 04:04:50;;;;;;;19.30;12.80;;;;;;;3.46;100.00;99825.59;4698793;30;20046;-76
2021/12/04 04:07:16;;;;;;;16.65;12.63;;;;;;;3.40;100.00;99825.88;4698961;30;20127;-76
2021/12/04 04:09:41;;;;;;;16.48;12.38;;;;;;;3.46;100.00;99830.69;4698096;30;20065;-79
2021/12/04 04:12:07;;;;;;;18.77;12.20;;;;;;;3.48;100.00;99818.69;4698732;30;20048;-76
2021/12/04 04:14:32;;;;;;;17.48;12.38;;;;;;;3.38;100.00;99802.19;4731876;30;20167;-76
2021/12/04 04:16:58;;;;;;;17.95;12.45;;;;;;;3.49;100.00;99812.69;4735750;30;20036;-79
2021/12/04 04:19:24;;;;;;;15.50;12.02;;;;;;;3.33;100.00;99776.88;4735605;30;20055;-77
2021/12/04 04:21:55;;;;;;;16.85;11.43;;;;;;;3.42;100.00;99788.34;4735304;30;20121;-75
2021/12/04 04:24:20;;;;;;;14.23;11.30;;;;;;;3.47;100.00;99806.81;4735639;30;20036;-75
2021/12/04 04:26:46;;;;;;;17.90;11.80;;;;;;;3.44;100.00;99794.19;4735505;30;20037;-75
2021/12/04 04:29:13;;;;;;;14.90;11.15;;;;;;;3.39;100.00;99780.84;4735444;30;20032;-74
2021/12/04 04:31:45;;;;;;;15.48;10.80;;;;;;;3.48;100.00;99803.38;4735652;30;20029;-74
2021/12/04 04:34:12;;;;;;;15.35;10.80;;;;;;;3.46;100.00;99805.19;4735498;30;20028;-75
2021/12/04 05:14:36;;;;;;;11.50;8.50;;;;;;;3.55;100.00;99781.75;4715723;30;20423;-75
2021/12/04 05:17:08;;;;;;;11.95;7.97;;;;;;;3.56;100.00;99780.84;4715554;30;20469;-74
2021/12/04 05:22:05;;;;;;;;;;;;;;;3.58;100.00;99771.38;4719306;30;20075;-74
2021/12/04 05:24:31;;;;;;;9.52;7.22;;;;;;;3.42;100.00;99750.06;4718908;30;19942;-74
2021/12/04 05:26:56;;;;;;;10.05;7.25;;;;;;;3.53;100.00;99767.38;4719020;30;20514;-75
2021/12/04 05:29:22;;;;;;;9.57;7.10;;;;;;;3.53;100.00;99770.78;4719019;30;20037;-72
2021/12/04 05:31:47;;;;;;;9.80;6.78;;;;;;;3.50;100.00;99762.44;4718851;30;20126;-75
2021/12/04 05:34:13;;;;;;;9.27;6.80;;;;;;;3.52;100.00;99766.56;4718908;30;20087;-75
2021/12/04 05:36:38;;;;;;;8.77;6.55;;;;;;;3.52;100.00;99755.53;4719057;30;20099;-75
2021/12/04 05:39:05;;;;;;;9.60;7.05;;;;;;;3.41;100.00;99740.78;4720584;30;20062;-75
2021/12/04 05:41:31;;;;;;;8.85;6.50;;;;;;;3.37;100.00;99734.19;4720884;30;20025;-74
2021/12/04 05:43:58;;;;;;;9.73;6.72;;;;;;;3.56;100.00;99773.19;4720594;30;20052;-74
2021/12/04 05:46:27;;;;;;;9.38;6.57;;;;;;;3.52;100.00;99758.91;4720808;30;20036;-74
2021/12/04 05:57:17;;;;;;;8.40;5.68;;;;;;;3.58;100.00;99760.34;4666760;30;20050;-74
2021/12/04 05:59:42;;;;;;;8.75;6.07;;;;;;;3.47;100.00;99735.38;4667104;30;20071;-75
2021/12/04 06:02:08;;;;;;;8.32;5.63;;;;;;;3.66;100.00;99756.50;4666752;30;20069;-76
2021/12/04 06:04:33;;;;;;;9.38;5.63;;;;;;;3.57;100.00;99743.38;4666605;30;20046;-75
2021/12/04 06:06:58;;;;;;;8.55;5.88;;;;;;;3.66;100.00;99755.66;4666541;30;20034;-75
2021/12/04 06:09:24;;;;;;;8.45;6.10;;;;;;;3.65;100.00;99746.38;4674691;30;20077;-77
2021/12/04 06:11:49;;;;;;;8.35;5.40;;;;;;;3.66;100.00;99753.94;4683644;30;20115;-74
2021/12/04 06:14:15;;;;;;;8.05;5.82;;;;;;;3.62;100.00;99749.06;4683610;30;20399;-75
2021/12/04 06:16:40;;;;;;;9.93;6.38;;;;;;;3.56;100.00;99736.63;4683684;30;20049;-75
2021/12/04 06:19:24;;;;;;;8.85;5.85;;;;;;;3.68;100.00;99743.66;4683516;30;20069;-75
2021/12/04 06:24:33;;;;;;;8.65;5.97;;;;;;;3.68;100.00;99744.47;4683136;30;20131;-74
2021/12/04 06:26:59;;;;;;;8.75;6.30;;;;;;;3.65;100.00;99744.63;4683569;30;20038;-75
2021/12/04 06:29:24;;;;;;;8.52;5.82;;;;;;;3.67;100.00;99742.00;4669916;30;20412;-75
2021/12/04 06:31:49;;;;;;;9.43;6.45;;;;;;;3.67;100.00;99739.44;4717578;30;20520;-75
2021/12/04 06:34:15;;;;;;;11.10;6.40;;;;;;;3.68;100.00;99738.53;4737303;30;20066;-75
2021/12/04 06:36:40;;;;;;;10.05;6.90;;;;;;;3.70;100.00;99744.38;4737355;30;20136;-75
2021/12/04 06:39:05;;;;;;;9.25;6.43;;;;;;;3.68;100.00;99744.47;4737037;30;20056;-75
2021/12/04 06:41:31;;;;;;;10.18;6.20;;;;;;;3.63;100.00;99737.94;4750519;30;20055;-76
2021/12/04 06:43:56;;;;;;;11.52;6.60;;;;;;;3.69;100.00;99738.47;4737140;30;20037;-76
2021/12/04 06:46:23;;;;;;;10.93;6.72;;;;;;;3.64;100.00;99737.06;4737314;30;20035;-76
2021/12/04 06:51:31;;;;;;;10.40;7.00;;;;;;;3.73;100.00;99746.78;4737290;30;20119;-74
2021/12/04 06:54:04;;;;;;;11.55;6.85;;;;;;;3.50;100.00;99704.56;4736980;30;20064;-74
2021/12/04 06:56:35;;;;;;;10.50;6.47;;;;;;;3.67;100.00;99737.72;4737165;30;20418;-75
2021/12/04 06:59:06;;;;;;;9.90;6.72;;;;;;;3.77;100.00;99752.56;4737060;30;20033;-75
2021/12/04 07:01:32;;;;;;;;;;;;;;;3.79;100.00;99749.00;4737381;30;20028;-73
2021/12/04 07:03:57;;;;;;;10.35;6.30;;;;;;;3.76;100.00;99749.19;4736767;30;20021;-75
2021/12/04 07:06:22;;;;;;;10.55;6.45;;;;;;;3.56;100.00;99711.94;4736716;30;20040;-76
2021/12/04 07:08:48;;;;;;;8.63;5.85;;;;;;;3.79;100.00;99748.19;4736737;30;20134;-75
2021/12/04 07:11:13;;;;;;;9.93;5.78;;;;;;;3.70;100.00;99734.16;4736680;30;20040;-78
2021/12/04 07:13:38;;;;;;;8.98;6.22;;;;;;;3.78;100.00;99754.19;4735399;30;20036;-73
2021/12/04 07:16:07;;;;;;;9.18;5.85;;;;;;;3.74;100.00;99749.28;4736955;30;20040;-73
2021/12/04 07:18:35;;;;;;;8.40;5.72;;;;;;;3.70;100.00;99745.22;4736653;30;20025;-73
2021/12/04 07:21:01;;;;;;;8.45;6.05;;;;;;;3.60;100.00;99723.63;4750019;30;20048;-75
2021/12/04 07:23:27;;;;;;;8.70;5.80;;;;;;;3.78;100.00;99744.81;4736457;30;20033;-76
2021/12/04 07:25:52;;;;;;;8.43;5.82;;;;;;;3.80;100.00;99743.00;4736225;30;20037;-76
2021/12/04 07:28:18;;;;;;;9.45;6.38;;;;;;;3.80;100.00;99737.88;4736473;30;20094;-76
2021/12/04 07:30:43;;;;;;;9.65;6.28;;;;;;;3.78;100.00;99726.13;4736374;30;20505;-76
2021/12/04 07:33:09;;;;;;;9.60;6.20;;;;;;;3.81;100.00;99731.88;4736357;30;20047;-73
2021/12/04 07:35:34;;;;;;;9.50;6.18;;;;;;;3.75;100.00;99729.66;4736520;30;20044;-78
2021/12/04 07:38:00;;;;;;;9.82;6.32;;;;;;;3.75;100.00;99729.66;4736120;30;20470;-76
2021/12/04 07:40:26;;;;;;;9.68;6.45;;;;;;;3.78;100.00;99746.53;4736000;30;20032;-80
2021/12/04 07:42:51;;;;;;;10.20;6.32;;;;;;;3.80;100.00;99745.56;4735908;30;20033;-79
2021/12/04 07:45:17;;;;;;;12.27;6.80;;;;;;;3.73;100.00;99737.38;4735887;30;20128;-76
2021/12/04 07:47:42;;;;;;;12.57;7.47;;;;;;;3.82;100.00;99740.34;4736175;30;20111;-77
2021/12/04 07:50:09;;;;;;;11.98;7.28;;;;;;;3.86;100.00;99735.03;4736251;30;20032;-77
2021/12/04 07:52:37;;;;;;;10.50;7.15;;;;;;;3.78;100.00;99718.47;4736005;30;20033;-78
2021/12/04 07:55:03;;;;;;;10.93;7.45;;;;;;;3.90;100.00;99730.56;4736101;30;20043;-76
2021/12/04 07:57:29;;;;;;;13.13;7.20;;;;;;;3.90;100.00;99717.81;4735833;30;20128;-75
2021/12/04 07:59:54;;;;;;;11.73;7.45;;;;;;;3.85;100.00;99707.03;4735842;30;20071;-76
2021/12/04 08:02:20;;;;;;;13.07;7.78;;;;;;;3.96;100.00;99725.16;4735805;30;20394;-77
2021/12/04 08:04:46;;;;;;;10.73;7.55;;;;;;;3.92;100.00;99710.88;4736011;30;20048;-78
2021/12/04 08:07:11;;;;;;;12.82;7.63;;;;;;;3.99;100.00;99722.41;4735807;30;20033;-75
2021/12/04 08:09:36;;;;;;;11.38;7.65;;;;;;;4.01;99.99;99725.72;4735613;30;20052;-80
2021/12/04 08:12:03;;;;;;;12.68;7.45;;;;;;;4.03;100.00;99721.34;4735656;30;20054;-80
2021/12/04 08:14:28;;;;;;;10.48;7.55;;;;;;;4.02;99.85;99717.97;4736928;30;20044;-79
2021/12/04 08:16:53;;;;;;;11.95;7.63;;;;;;;4.05;99.74;99718.72;4735725;30;20032;-81
2021/12/04 08:19:19;;;;;;;10.23;6.82;;;;;;;3.87;99.95;99684.78;4735637;30;20123;-78
2021/12/04 08:21:45;;;;;;;11.50;7.10;;;;;;;3.83;99.53;99670.50;4748981;30;20522;-76
2021/12/04 08:24:10;;;;;;;10.75;6.60;;;;;;;4.11;99.84;99703.88;4735322;30;20085;-73
2021/12/04 08:26:38;;;;;;;11.40;6.68;;;;;;;4.12;99.79;99697.84;4735163;30;20112;-74
2021/12/04 08:29:05;;;;;;;10.25;6.60;;;;;;;4.16;99.66;99691.69;4735398;30;20025;-76
2021/12/04 08:31:32;;;;;;;10.10;6.65;;;;;;;3.93;99.51;99646.13;4749161;30;20376;-76
2021/12/04 08:33:58;;;;;;;10.40;6.43;;;;;;;3.83;99.65;99617.69;4735527;30;20036;-75
2021/12/04 08:36:23;;;;;;;10.02;6.85;;;;;;;4.22;99.47;99677.72;4735380;30;20483;-78
2021/12/04 08:38:49;;;;;;;11.45;6.65;;;;;;;4.20;99.28;99675.25;4735263;30;20033;-75
2021/12/04 08:41:15;;;;;;;10.95;6.45;;;;;;;4.24;99.38;99671.66;4735170;30;20374;-74
2021/12/04 08:43:41;;;;;;;10.13;6.50;;;;;;;4.25;98.98;99675.03;4734874;30;20051;-77
2021/12/04 08:46:07;;;;;;;11.38;7.90;;;;;;;4.28;99.27;99665.44;4735356;30;20120;-80
2021/12/04 08:48:33;;;;;;;11.20;7.35;;;;;;;4.10;98.57;99630.69;4735410;30;20409;-80
2021/12/04 08:51:00;;;;;;;11.73;7.88;;;;;;;4.32;98.85;99655.88;4735206;30;20041;-76
2021/12/04 08:53:26;;;;;;;12.80;8.55;;;;;;;4.31;98.76;99662.72;4735112;30;20098;-79
2021/12/04 08:55:51;;;;;;;11.00;7.93;;;;;;;4.34;99.14;99658.38;4747857;30;20049;-76
2021/12/04 08:58:16;;;;;;;21.73;8.63;;;;;;;4.35;98.59;99648.06;4734876;30;20115;-78
2021/12/04 09:00:49;;;;;;;12.73;8.65;;;;;;;4.24;98.61;99633.31;4735160;30;20490;-76
2021/12/04 09:03:16;;;;;;;11.93;8.57;;;;;;;4.26;97.96;99635.78;4735248;30;20490;-83
2021/12/04 09:05:42;;;;;;;12.85;8.65;;;;;;;4.20;98.03;99626.72;4735077;30;20029;-77
2021/12/04 09:08:07;;;;;;;14.10;9.32;;;;;;;4.39;98.25;99664.03;4734897;30;20059;-76
2021/12/04 09:10:33;;;;;;;12.57;8.93;;;;;;;4.41;97.96;99664.75;4734610;30;20091;-76
2021/12/04 09:12:59;;;;;;;13.02;8.93;;;;;;;4.35;97.66;99660.84;4734846;30;20040;-75
2021/12/04 09:15:27;;;;;;;12.13;8.23;;;;;;;4.38;98.09;99659.81;4735076;30;20036;-78
2021/12/04 09:17:53;;;;;;;13.63;8.50;;;;;;;4.44;97.86;99662.88;4734922;30;20029;-76
2021/12/04 09:20:18;;;;;;;11.75;8.80;;;;;;;4.47;98.22;99665.25;4734878;30;20102;-77
2021/12/04 09:22:46;;;;;;;13.85;8.80;;;;;;;4.46;97.93;99667.91;4734769;30;20126;-76
2021/12/04 09:25:21;;;;;;;12.15;8.40;;;;;;;4.26;98.12;99615.34;4734737;30;20394;-77
2021/12/04 10:19:21;;;;;;;10.43;7.03;;;;;;;4.69;96.84;99613.69;4683420;30;20050;-78
2021/12/04 10:22:06;;;;;;;10.02;6.88;;;;;;;4.65;96.67;99606.31;4683178;30;20053;-75
2021/12/04 10:35:09;;;;;;;10.02;7.20;;;;;;;4.71;96.62;99580.38;4683300;30;20061;-76
2021/12/04 10:37:45;;;;;;;10.20;7.70;;;;;;;4.69;96.85;99570.22;4683213;30;20046;-76
2021/12/04 10:40:11;;;;;;;11.45;8.10;;;;;;;4.64;97.05;99556.91;4683303;30;20088;-76
2021/12/04 10:42:50;;;;;;;10.15;7.22;;;;;;;4.74;96.65;99575.91;4683161;30;20050;-76
2021/12/04 10:45:16;;;;;;;10.05;7.72;;;;;;;4.68;96.38;99578.81;4683024;30;20108;-73
2021/12/04 10:47:57;;;;;;;11.57;8.38;;;;;;;4.68;96.65;99565.22;4682960;30;20046;-75
2021/12/04 10:52:55;;;;;;;13.43;9.10;;;;;;;4.75;96.71;99561.38;4683012;30;20120;-76
2021/12/04 11:21:05;;;;;;;16.35;10.73;;;;;;;5.14;96.28;99504.44;4736676;30;20402;-76
2021/12/04 11:26:30;;;;;;;12.73;9.55;;;;;;;5.15;95.24;99495.84;4736850;30;20501;-75
2021/12/04 11:44:53;;;;;;;14.93;10.70;;;;;;;5.30;95.30;99486.38;4735982;30;20479;-77
2021/12/04 11:47:20;;;;;;;16.63;11.80;;;;;;;5.30;95.08;99482.09;4736038;30;20036;-75
2021/12/04 11:49:45;;;;;;;15.05;11.00;;;;;;;5.30;95.44;99486.38;4735979;30;20031;-74
2021/12/04 11:52:14;;;;;;;14.18;11.35;;;;;;;5.15;95.01;99467.69;4736034;30;20041;-75
2021/12/04 11:54:53;;;;;;;15.13;11.55;;;;;;;5.26;94.86;99477.25;4749631;30;20367;-75
2021/12/04 11:57:33;;;;;;;16.50;11.38;;;;;;;5.31;95.27;99482.91;4735945;30;20115;-76
2021/12/04 12:00:10;;;;;;;14.20;10.60;;;;;;;5.18;95.51;99452.97;4735915;30;20498;-77
2021/12/04 12:02:35;;;;;;;15.50;10.52;;;;;;;5.28;95.22;99467.75;4735502;30;20036;-75
2021/12/04 12:05:01;;;;;;;15.63;10.10;;;;;;;5.29;95.26;99456.59;4735664;30;20036;-76
2021/12/04 12:07:29;;;;;;;13.02;10.00;;;;;;;5.30;94.76;99461.59;4735829;30;20043;-78
2021/12/04 12:10:12;;;;;;;14.00;10.57;;;;;;;5.34;95.11;99462.25;4719356;30;20052;-75
2021/12/04 12:12:41;;;;;;;13.00;9.85;;;;;;;5.32;94.94;99447.00;4735659;30;20048;-75
2021/12/04 12:15:29;;;;;;;13.73;10.25;;;;;;;5.35;95.48;99435.72;4719822;30;20552;-76
2021/12/04 12:17:55;;;;;;;13.60;10.10;;;;;;;5.36;95.25;99430.50;4735438;30;20041;-77
2021/12/04 12:20:43;;;;;;;13.10;9.93;;;;;;;5.18;94.77;99406.09;4735540;30;20462;-75
2021/12/04 12:23:11;;;;;;;13.18;9.90;;;;;;;5.37;94.89;99450.06;4735658;30;20036;-75
2021/12/04 12:26:01;;;;;;;13.73;9.98;;;;;;;5.18;95.08;99419.69;4735328;30;20390;-78
2021/12/04 12:37:21;;;;;;;12.57;9.98;;;;;;;5.40;95.16;99439.63;4735811;30;20052;-73
2021/12/04 12:40:04;;;;;;;15.13;10.27;;;;;;;5.32;95.24;99452.13;4735248;30;20033;-78
2021/12/04 12:42:36;;;;;;;14.18;10.40;;;;;;;5.26;95.69;99444.81;4735095;30;20497;-77
2021/12/04 12:45:24;;;;;;;14.55;9.95;;;;;;;5.30;95.94;99446.25;4735327;30;20094;-79
2021/12/04 12:47:57;;;;;;;12.57;9.35;;;;;;;5.27;96.26;99446.44;4735248;30;20028;-75
2021/12/04 12:50:46;;;;;;;13.65;9.57;;;;;;;5.23;96.48;99445.00;4734933;30;20032;-77
2021/12/04 12:53:24;;;;;;;13.40;9.75;;;;;;;5.25;96.57;99461.09;4734949;30;20486;-77
2021/12/04 12:55:52;;;;;;;13.80;9.30;;;;;;;5.12;96.84;99445.69;4735189;30;20040;-80
2021/12/04 12:58:18;;;;;;;14.50;10.35;;;;;;;5.16;97.13;99452.25;4735337;30;20064;-78
2021/12/04 13:12:04;;;;;;;20.40;13.45;;;;;;;5.01;98.26;99440.41;4735182;30;20117;-76
2021/12/04 13:14:46;;;;;;;22.23;13.70;;;;;;;4.99;99.03;99432.00;4747871;30;20070;-76
2021/12/04 13:17:16;;;;;;;21.63;14.52;;;;;;;5.00;98.63;99432.81;4734850;30;20036;-76
2021/12/04 13:19:45;;;;;;;21.27;13.77;;;;;;;4.94;99.41;99423.00;4734776;30;20040;-76
2021/12/04 13:22:14;;;;;;;24.45;15.02;;;;;;;4.74;99.49;99391.78;4734561;30;20052;-78
2021/12/04 13:24:41;;;;;;;22.92;14.55;;;;;;;5.02;99.83;99436.13;4734539;30;20123;-77
2021/12/04 13:29:46;;;;;;;22.90;15.05;;;;;;;5.02;99.98;99439.50;4735078;30;20051;-77
2021/12/04 13:32:14;;;;;;;26.42;15.65;;;;;;;5.05;100.00;99435.94;4734900;30;20386;-75
2021/12/04 13:34:41;;;;;;;24.42;15.77;;;;;;;4.98;99.85;99420.13;4734605;30;20087;-78
2021/12/04 13:37:07;;;;;;;23.23;15.32;;;;;;;5.07;99.87;99434.09;4734367;30;20029;-81
2021/12/04 13:39:35;;;;;;;23.27;15.85;;;;;;;5.02;99.88;99421.59;4734811;30;20028;-76
2021/12/04 13:42:01;;;;;;;22.67;15.70;;;;;;;5.01;99.89;99421.66;4737275;30;20055;-79
2021/12/04 13:44:28;;;;;;;23.30;15.93;;;;;;;5.04;100.00;99424.06;4738129;30;20036;-85
2021/12/04 13:47:02;;;;;;;22.83;15.55;;;;;;;5.06;100.00;99422.22;4738134;30;20513;-78
2021/12/04 13:49:50;;;;;;;22.33;15.30;;;;;;;4.93;100.00;99399.16;4737962;30;20036;-82
2021/12/04 13:52:16;;;;;;;21.13;15.05;;;;;;;5.06;99.99;99425.59;4722188;30;20474;-84
2021/12/04 13:54:46;;;;;;;22.35;15.38;;;;;;;5.04;100.00;99430.00;4738086;30;20044;-89
2021/12/04 13:57:14;;;;;;;29.13;16.52;;;;;;;5.01;100.00;99419.94;4738156;30;20036;-89
2021/12/04 13:59:41;;;;;;;26.90;17.67;;;;;;;4.83;100.00;99390.41;4737889;30;20040;-77
2021/12/04 14:02:17;;;;;;;23.80;15.38;;;;;;;5.04;100.00;99427.44;4737766;30;20036;-87
2021/12/04 14:04:43;;;;;;;20.42;14.55;;;;;;;5.03;100.00;99428.34;4737863;30;20040;-82
2021/12/04 14:07:08;;;;;;;19.15;13.90;;;;;;;4.87;100.00;99408.00;4737504;30;20032;-84
2021/12/04 14:09:36;;;;;;;20.65;13.93;;;;;;;5.04;100.00;99424.06;4737754;30;20136;-78
2021/12/04 14:12:06;;;;;;;20.90;13.52;;;;;;;4.86;100.00;99397.88;4738450;30;20033;-84
2021/12/04 14:14:34;;;;;;;19.35;14.30;;;;;;;5.06;100.00;99429.88;4737846;30;20057;-83
2021/12/04 14:17:09;;;;;;;21.13;14.43;;;;;;;5.08;100.00;99423.75;4737663;30;20039;-78
2021/12/04 14:19:35;;;;;;;20.52;15.13;;;;;;;5.04;100.00;99412.09;4737620;30;20485;-77
2021/12/04 14:22:04;;;;;;;21.00;14.55;;;;;;;5.12;100.00;99427.78;4737472;30;20032;-81
2021/12/04 14:24:34;;;;;;;20.38;15.13;;;;;;;5.15;100.00;99434.44;4737510;30;20036;-86
2021/12/04 14:27:02;;;;;;;20.90;14.30;;;;;;;5.16;100.00;99425.84;4737595;30;20105;-81
2021/12/04 14:29:37;;;;;;;21.60;15.52;;;;;;;5.18;100.00;99429.94;4737548;30;20056;-78
2021/12/04 14:32:04;;;;;;;21.10;15.45;;;;;;;5.17;100.00;99435.16;4721548;30;20067;-80
2021/12/04 14:34:30;;;;;;;20.95;14.20;;;;;;;5.17;100.00;99438.53;4737593;30;20029;-82
2021/12/04 14:37:10;;;;;;;22.58;15.30;;;;;;;5.16;100.00;99436.06;4737303;30;20039;-79
2021/12/04 14:39:35;;;;;;;22.55;13.82;;;;;;;4.97;100.00;99412.56;4737459;30;20079;-82
2021/12/04 14:42:15;;;;;;;21.80;13.88;;;;;;;5.09;100.00;99445.03;4737481;30;20065;-81
2021/12/04 14:44:46;;;;;;;19.95;13.82;;;;;;;5.11;100.00;99461.13;4737164;30;20040;-78
2021/12/04 14:47:12;;;;;;;21.48;14.10;;;;;;;5.03;100.00;99453.13;4737059;30;20120;-77
2021/12/04 14:49:40;;;;;;;17.25;11.43;;;;;;;5.12;100.00;99467.91;4737193;30;20076;-77
2021/12/04 14:52:05;;;;;;;16.80;11.00;;;;;;;4.94;100.00;99449.38;4736431;30;20478;-79
2021/12/04 14:54:34;;;;;;;14.50;9.10;;;;;;;5.09;100.00;99481.69;4736813;30;20039;-78
2021/12/04 14:57:01;;;;;;;14.95;9.15;;;;;;;5.05;100.00;99472.56;4736927;30;20028;-78